RJAW(METAR)
05/21 17:00
METAR RJAW 210800Z 15007KT 9999 SCT020 SCT070 26/24 Q1003 RMK 3CU020
3AC070 A2963=
戻る
トップページへ戻る
IMOC Co,.Ltd.